sensor_id;sensor_type;location;lat;lon;timestamp;pressure;altitude;pressure_sealevel;temperature;humidity
7584;BME280;3833;41.764;26.204;2023-02-16T00:01:01;100271.13;;;-1.31;100.00
7584;BME280;3833;41.764;26.204;2023-02-16T00:03:29;100290.81;;;-1.21;100.00
7584;BME280;3833;41.764;26.204;2023-02-16T00:05:55;100311.41;;;-1.03;100.00
7584;BME280;3833;41.764;26.204;2023-02-16T00:08:24;100307.19;;;-0.92;100.00
7584;BME280;3833;41.764;26.204;2023-02-16T00:10:50;100304.56;;;-1.01;100.00
7584;BME280;3833;41.764;26.204;2023-02-16T00:13:35;100310.53;;;-1.05;100.00
7584;BME280;3833;41.764;26.204;2023-02-16T00:16:16;100307.09;;;-1.07;100.00
7584;BME280;3833;41.764;26.204;2023-02-16T00:18:43;100313.09;;;-1.05;100.00
7584;BME280;3833;41.764;26.204;2023-02-16T00:21:10;100281.41;;;-1.25;100.00
7584;BME280;3833;41.764;26.204;2023-02-16T00:23:38;100303.69;;;-1.10;100.00
7584;BME280;3833;41.764;26.204;2023-02-16T00:26:12;100300.25;;;-1.14;100.00
7584;BME280;3833;41.764;26.204;2023-02-16T00:28:40;100306.19;;;-1.22;100.00
7584;BME280;3833;41.764;26.204;2023-02-16T00:31:14;100313.03;;;-1.17;100.00
7584;BME280;3833;41.764;26.204;2023-02-16T00:33:41;100304.53;;;-1.13;100.00
7584;BME280;3833;41.764;26.204;2023-02-16T00:36:08;100304.50;;;-1.16;100.00
7584;BME280;3833;41.764;26.204;2023-02-16T00:38:35;100305.31;;;-1.23;100.00
7584;BME280;3833;41.764;26.204;2023-02-16T00:41:03;100307.84;;;-1.26;100.00
7584;BME280;3833;41.764;26.204;2023-02-16T00:43:50;100283.06;;;-1.30;100.00
7584;BME280;3833;41.764;26.204;2023-02-16T00:46:20;100303.69;;;-1.06;100.00
7584;BME280;3833;41.764;26.204;2023-02-16T00:48:47;100305.31;;;-1.23;100.00
7584;BME280;3833;41.764;26.204;2023-02-16T00:51:13;100304.38;;;-1.37;100.00
7584;BME280;3833;41.764;26.204;2023-02-16T00:53:40;100296.69;;;-1.37;100.00
7584;BME280;3833;41.764;26.204;2023-02-16T00:56:12;100265.88;;;-1.55;100.00
7584;BME280;3833;41.764;26.204;2023-02-16T00:58:42;100292.47;;;-1.29;100.00
7584;BME280;3833;41.764;26.204;2023-02-16T01:01:13;100289.91;;;-1.29;100.00
7584;BME280;3833;41.764;26.204;2023-02-16T01:03:41;100283.03;;;-1.39;100.00
7584;BME280;3833;41.764;26.204;2023-02-16T01:06:09;100280.50;;;-1.36;100.00
7584;BME280;3833;41.764;26.204;2023-02-16T01:08:54;100281.31;;;-1.40;100.00
7584;BME280;3833;41.764;26.204;2023-02-16T01:11:44;100282.19;;;-1.38;100.00
7584;BME280;3833;41.764;26.204;2023-02-16T01:14:12;100284.72;;;-1.39;100.00
7584;BME280;3833;41.764;26.204;2023-02-16T01:16:40;100282.25;;;-1.23;100.00
7584;BME280;3833;41.764;26.204;2023-02-16T01:19:09;100288.22;;;-1.24;100.00
7584;BME280;3833;41.764;26.204;2023-02-16T01:21:36;100291.63;;;-1.25;100.00
7584;BME280;3833;41.764;26.204;2023-02-16T01:24:03;100217.25;;;-1.49;100.00
7584;BME280;3833;41.764;26.204;2023-02-16T01:26:31;100259.16;;;-1.32;100.00
7584;BME280;3833;41.764;26.204;2023-02-16T01:29:01;100271.97;;;-1.35;100.00
7584;BME280;3833;41.764;26.204;2023-02-16T01:31:27;100277.94;;;-1.36;100.00
7584;BME280;3833;41.764;26.204;2023-02-16T01:33:54;100258.19;;;-1.53;100.00
7584;BME280;3833;41.764;26.204;2023-02-16T01:36:34;100276.09;;;-1.58;100.00
7584;BME280;3833;41.764;26.204;2023-02-16T01:39:02;100264.91;;;-1.70;100.00
7584;BME280;3833;41.764;26.204;2023-02-16T01:41:42;100226.38;;;-1.93;100.00
7584;BME280;3833;41.764;26.204;2023-02-16T01:44:14;100273.47;;;-1.67;100.00
7584;BME280;3833;41.764;26.204;2023-02-16T01:46:46;100268.31;;;-1.71;100.00
7584;BME280;3833;41.764;26.204;2023-02-16T01:49:17;100268.34;;;-1.67;100.00
7584;BME280;3833;41.764;26.204;2023-02-16T01:51:50;100263.25;;;-1.62;100.00
7584;BME280;3833;41.764;26.204;2023-02-16T01:54:30;100271.84;;;-1.54;100.00
7584;BME280;3833;41.764;26.204;2023-02-16T01:57:03;100265.84;;;-1.61;100.00
7584;BME280;3833;41.764;26.204;2023-02-16T01:59:39;100267.56;;;-1.57;100.00
7584;BME280;3833;41.764;26.204;2023-02-16T02:02:15;100276.13;;;-1.55;100.00
7584;BME280;3833;41.764;26.204;2023-02-16T02:04:46;100258.09;;;-1.71;100.00
7584;BME280;3833;41.764;26.204;2023-02-16T02:07:36;100274.44;;;-1.47;100.00
7584;BME280;3833;41.764;26.204;2023-02-16T02:10:12;100253.00;;;-1.67;100.00
7584;BME280;3833;41.764;26.204;2023-02-16T02:12:46;100276.00;;;-1.67;100.00
7584;BME280;3833;41.764;26.204;2023-02-16T02:15:19;100273.41;;;-1.73;100.00
7584;BME280;3833;41.764;26.204;2023-02-16T02:17:48;100274.25;;;-1.77;100.00
7584;BME280;3833;41.764;26.204;2023-02-16T02:20:19;100275.13;;;-1.75;100.00
7584;BME280;3833;41.764;26.204;2023-02-16T02:26:20;100273.47;;;-1.64;100.00
7584;BME280;3833;41.764;26.204;2023-02-16T02:29:00;100270.09;;;-1.64;100.00
7584;BME280;3833;41.764;26.204;2023-02-16T02:31:42;100275.19;;;-1.63;100.00
7584;BME280;3833;41.764;26.204;2023-02-16T02:34:16;100270.88;;;-1.70;100.00
7584;BME280;3833;41.764;26.204;2023-02-16T02:36:50;100267.44;;;-1.75;100.00
7584;BME280;3833;41.764;26.204;2023-02-16T02:39:32;100171.63;;;-2.21;100.00
7584;BME280;3833;41.764;26.204;2023-02-16T02:42:03;100274.47;;;-1.45;100.00
7584;BME280;3833;41.764;26.204;2023-02-16T02:44:40;100244.50;;;-1.64;100.00
7584;BME280;3833;41.764;26.204;2023-02-16T02:47:08;100280.44;;;-1.42;100.00
7584;BME280;3833;41.764;26.204;2023-02-16T02:49:35;100279.66;;;-1.29;100.00
7584;BME280;3833;41.764;26.204;2023-02-16T02:52:02;100281.38;;;-1.28;100.00
7584;BME280;3833;41.764;26.204;2023-02-16T02:54:32;100278.09;;;-1.00;100.00
7584;BME280;3833;41.764;26.204;2023-02-16T02:57:17;100254.03;;;-1.38;100.00
7584;BME280;3833;41.764;26.204;2023-02-16T03:00:07;100276.22;;;-1.37;100.00
7584;BME280;3833;41.764;26.204;2023-02-16T03:02:57;100276.09;;;-1.58;100.00
7584;BME280;3833;41.764;26.204;2023-02-16T03:05:26;100275.25;;;-1.55;100.00
7584;BME280;3833;41.764;26.204;2023-02-16T03:07:58;100224.78;;;-1.79;100.00
7584;BME280;3833;41.764;26.204;2023-02-16T03:10:32;100271.97;;;-1.32;100.00
7584;BME280;3833;41.764;26.204;2023-02-16T03:13:20;100278.81;;;-1.34;100.00
7584;BME280;3833;41.764;26.204;2023-02-16T03:15:50;100248.75;;;-1.62;100.00
7584;BME280;3833;41.764;26.204;2023-02-16T03:18:22;100279.47;;;-1.62;100.00
7584;BME280;3833;41.764;26.204;2023-02-16T03:21:09;100284.53;;;-1.68;100.00
7584;BME280;3833;41.764;26.204;2023-02-16T03:23:55;100249.38;;;-1.94;100.00
7584;BME280;3833;41.764;26.204;2023-02-16T03:26:39;100274.28;;;-1.74;100.00
7584;BME280;3833;41.764;26.204;2023-02-16T03:29:25;100278.56;;;-1.67;100.00
7584;BME280;3833;41.764;26.204;2023-02-16T03:31:54;100281.19;;;-1.61;100.00
7584;BME280;3833;41.764;26.204;2023-02-16T03:34:22;100284.63;;;-1.56;100.00
7584;BME280;3833;41.764;26.204;2023-02-16T03:36:51;100268.34;;;-1.68;100.00
7584;BME280;3833;41.764;26.204;2023-02-16T03:39:19;100251.19;;;-1.83;100.00
7584;BME280;3833;41.764;26.204;2023-02-16T03:41:48;100275.28;;;-1.54;100.00
7584;BME280;3833;41.764;26.204;2023-02-16T03:44:17;100285.44;;;-1.64;100.00
7584;BME280;3833;41.764;26.204;2023-02-16T03:46:44;100275.13;;;-1.73;100.00
7584;BME280;3833;41.764;26.204;2023-02-16T03:49:15;100192.91;;;-2.21;100.00
7584;BME280;3833;41.764;26.204;2023-02-16T03:51:42;100156.16;;;-2.33;100.00
7584;BME280;3833;41.764;26.204;2023-02-16T03:54:09;100276.00;;;-1.67;100.00
7584;BME280;3833;41.764;26.204;2023-02-16T03:56:36;100277.72;;;-1.66;100.00
7584;BME280;3833;41.764;26.204;2023-02-16T03:59:03;100274.31;;;-1.65;100.00
7584;BME280;3833;41.764;26.204;2023-02-16T04:01:30;100269.47;;;-1.23;100.00
7584;BME280;3833;41.764;26.204;2023-02-16T04:03:56;100281.44;;;-1.19;100.00
7584;BME280;3833;41.764;26.204;2023-02-16T04:06:25;100271.16;;;-1.26;100.00
7584;BME280;3833;41.764;26.204;2023-02-16T04:08:52;100277.03;;;-1.41;100.00
7584;BME280;3833;41.764;26.204;2023-02-16T04:11:18;100278.69;;;-1.49;100.00
7584;BME280;3833;41.764;26.204;2023-02-16T04:14:03;100274.44;;;-1.47;100.00
7584;BME280;3833;41.764;26.204;2023-02-16T04:16:29;100278.75;;;-1.40;100.00
7584;BME280;3833;41.764;26.204;2023-02-16T04:18:56;100259.78;;;-1.70;100.00
7584;BME280;3833;41.764;26.204;2023-02-16T04:21:24;100283.63;;;-1.73;100.00
7584;BME280;3833;41.764;26.204;2023-02-16T04:23:51;100282.69;;;-1.87;100.00
7584;BME280;3833;41.764;26.204;2023-02-16T04:26:18;100283.44;;;-1.98;100.00
7584;BME280;3833;41.764;26.204;2023-02-16T04:28:45;100291.91;;;-2.08;100.00
7584;BME280;3833;41.764;26.204;2023-02-16T04:31:12;100291.94;;;-2.02;100.00
7584;BME280;3833;41.764;26.204;2023-02-16T04:33:39;100256.78;;;-2.25;100.00
7584;BME280;3833;41.764;26.204;2023-02-16T04:36:07;100295.25;;;-2.16;100.00
7584;BME280;3833;41.764;26.204;2023-02-16T04:38:35;100296.88;;;-2.20;100.00
7584;BME280;3833;41.764;26.204;2023-02-16T04:41:02;100296.09;;;-2.17;100.00
7584;BME280;3833;41.764;26.204;2023-02-16T04:43:29;100301.13;;;-2.23;100.00
7584;BME280;3833;41.764;26.204;2023-02-16T04:45:57;100275.59;;;-2.20;100.00
7584;BME280;3833;41.764;26.204;2023-02-16T04:48:24;100279.91;;;-2.13;100.00
7584;BME280;3833;41.764;26.204;2023-02-16T04:50:50;100302.31;;;-1.87;100.00
7584;BME280;3833;41.764;26.204;2023-02-16T04:53:17;100306.66;;;-1.73;100.00
7584;BME280;3833;41.764;26.204;2023-02-16T04:55:46;100247.53;;;-2.11;100.00
7584;BME280;3833;41.764;26.204;2023-02-16T04:58:13;100306.78;;;-1.61;100.00
7584;BME280;3833;41.764;26.204;2023-02-16T05:00:40;100313.75;;;-1.39;100.00
7584;BME280;3833;41.764;26.204;2023-02-16T05:03:07;100299.22;;;-1.43;100.00
7584;BME280;3833;41.764;26.204;2023-02-16T05:05:34;100282.94;;;-1.54;100.00
7584;BME280;3833;41.764;26.204;2023-02-16T05:08:01;100300.94;;;-1.43;100.00
7584;BME280;3833;41.764;26.204;2023-02-16T05:10:27;100309.53;;;-1.28;100.00
7584;BME280;3833;41.764;26.204;2023-02-16T05:12:56;100313.91;;;-1.09;100.00
7584;BME280;3833;41.764;26.204;2023-02-16T05:15:40;100304.63;;;-0.92;100.00
7584;BME280;3833;41.764;26.204;2023-02-16T05:18:07;100315.78;;;-0.78;100.00
7584;BME280;3833;41.764;26.204;2023-02-16T05:20:34;100295.25;;;-0.81;100.00
7584;BME280;3833;41.764;26.204;2023-02-16T05:23:18;100315.84;;;-0.60;100.00
7584;BME280;3833;41.764;26.204;2023-02-16T05:25:45;100322.72;;;-0.53;100.00
7584;BME280;3833;41.764;26.204;2023-02-16T05:28:14;100327.88;;;-0.38;100.00
7584;BME280;3833;41.764;26.204;2023-02-16T05:30:40;100328.78;;;-0.17;100.00
7584;BME280;3833;41.764;26.204;2023-02-16T05:33:07;100328.78;;;-0.23;100.00
7584;BME280;3833;41.764;26.204;2023-02-16T05:35:34;100327.94;;;-0.14;100.00
7584;BME280;3833;41.764;26.204;2023-02-16T05:38:01;100332.22;;;-0.07;100.00
7584;BME280;3833;41.764;26.204;2023-02-16T05:40:28;100333.09;;;0.21;100.00
7584;BME280;3833;41.764;26.204;2023-02-16T05:42:55;100307.44;;;0.09;100.00
7584;BME280;3833;41.764;26.204;2023-02-16T05:45:23;100339.97;;;0.49;100.00
7584;BME280;3833;41.764;26.204;2023-02-16T05:47:50;100343.38;;;0.47;100.00
7584;BME280;3833;41.764;26.204;2023-02-16T05:50:17;100338.25;;;0.21;100.00
7584;BME280;3833;41.764;26.204;2023-02-16T05:52:44;100343.34;;;0.15;100.00
7584;BME280;3833;41.764;26.204;2023-02-16T05:55:11;100344.22;;;0.22;100.00
7584;BME280;3833;41.764;26.204;2023-02-16T05:57:38;100343.38;;;0.21;100.00
7584;BME280;3833;41.764;26.204;2023-02-16T06:00:05;100345.06;;;0.31;100.00
7584;BME280;3833;41.764;26.204;2023-02-16T06:02:34;100338.22;;;0.23;100.00
7584;BME280;3833;41.764;26.204;2023-02-16T06:05:01;100337.38;;;0.24;100.00
7584;BME280;3833;41.764;26.204;2023-02-16T06:07:28;100298.84;;;0.10;100.00
7584;BME280;3833;41.764;26.204;2023-02-16T06:09:55;100339.09;;;0.52;100.00
7584;BME280;3833;41.764;26.204;2023-02-16T06:12:21;100349.34;;;0.64;100.00
7584;BME280;3833;41.764;26.204;2023-02-16T06:14:48;100315.09;;;0.62;100.00
7584;BME280;3833;41.764;26.204;2023-02-16T06:17:15;100346.75;;;0.83;100.00
7584;BME280;3833;41.764;26.204;2023-02-16T06:19:43;100350.91;;;1.33;100.00
7584;BME280;3833;41.764;26.204;2023-02-16T06:22:10;100350.97;;;3.43;100.00
7584;BME280;3833;41.764;26.204;2023-02-16T06:24:37;100345.91;;;5.88;100.00
7584;BME280;3833;41.764;26.204;2023-02-16T06:27:04;100361.44;;;7.59;100.00
7584;BME280;3833;41.764;26.204;2023-02-16T06:29:31;100361.97;;;9.78;100.00
7584;BME280;3833;41.764;26.204;2023-02-16T06:31:58;100362.13;;;9.74;86.28
7584;BME280;3833;41.764;26.204;2023-02-16T06:34:25;100344.06;;;10.58;82.06
7584;BME280;3833;41.764;26.204;2023-02-16T06:36:53;100346.38;;;11.45;77.96
7584;BME280;3833;41.764;26.204;2023-02-16T06:39:20;100370.38;;;12.30;74.79
7584;BME280;3833;41.764;26.204;2023-02-16T06:41:47;100375.47;;;10.98;70.94
7584;BME280;3833;41.764;26.204;2023-02-16T06:44:14;100374.47;;;11.00;69.25
7584;BME280;3833;41.764;26.204;2023-02-16T06:46:43;100352.00;;;11.16;66.74
7584;BME280;3833;41.764;26.204;2023-02-16T06:49:12;100373.56;;;12.71;63.23
7584;BME280;3833;41.764;26.204;2023-02-16T06:51:39;100376.22;;;14.52;59.18
7584;BME280;3833;41.764;26.204;2023-02-16T06:54:07;100378.91;;;14.81;55.41
7584;BME280;3833;41.764;26.204;2023-02-16T06:56:34;100380.91;;;11.91;59.34
7584;BME280;3833;41.764;26.204;2023-02-16T06:59:01;100388.22;;;12.22;60.83
7584;BME280;3833;41.764;26.204;2023-02-16T07:01:28;100360.72;;;11.75;59.05
7584;BME280;3833;41.764;26.204;2023-02-16T07:03:57;100381.56;;;12.68;57.20
7584;BME280;3833;41.764;26.204;2023-02-16T07:06:26;100386.03;;;14.17;54.13
7584;BME280;3833;41.764;26.204;2023-02-16T07:08:54;100384.59;;;13.30;54.76
7584;BME280;3833;41.764;26.204;2023-02-16T07:11:22;100267.41;;;14.25;51.75
7584;BME280;3833;41.764;26.204;2023-02-16T07:13:49;100382.25;;;13.41;53.42
7584;BME280;3833;41.764;26.204;2023-02-16T07:16:16;100381.38;;;14.38;52.66
7584;BME280;3833;41.764;26.204;2023-02-16T07:18:43;100374.84;;;14.75;50.42
7584;BME280;3833;41.764;26.204;2023-02-16T07:21:10;100377.97;;;13.72;54.39
7584;BME280;3833;41.764;26.204;2023-02-16T07:23:37;100381.44;;;15.27;51.24
7584;BME280;3833;41.764;26.204;2023-02-16T07:26:04;100381.44;;;14.82;50.73
7584;BME280;3833;41.764;26.204;2023-02-16T07:28:33;100389.41;;;14.81;51.73
7584;BME280;3833;41.764;26.204;2023-02-16T07:31:05;100374.53;;;13.55;53.42
7584;BME280;3833;41.764;26.204;2023-02-16T07:33:32;100386.88;;;14.18;52.72
7584;BME280;3833;41.764;26.204;2023-02-16T07:35:59;100386.03;;;13.52;54.74
7584;BME280;3833;41.764;26.204;2023-02-16T07:38:26;100391.03;;;14.22;52.48
7584;BME280;3833;41.764;26.204;2023-02-16T07:40:55;100296.63;;;14.50;53.35
7584;BME280;3833;41.764;26.204;2023-02-16T07:43:22;100384.44;;;13.98;54.03
7584;BME280;3833;41.764;26.204;2023-02-16T07:45:50;100378.25;;;14.77;51.01
7584;BME280;3833;41.764;26.204;2023-02-16T07:48:17;100377.88;;;17.06;49.21
7584;BME280;3833;41.764;26.204;2023-02-16T07:50:44;100381.66;;;17.02;47.42
7584;BME280;3833;41.764;26.204;2023-02-16T07:53:11;100377.19;;;15.54;47.22
7584;BME280;3833;41.764;26.204;2023-02-16T07:55:38;100304.50;;;15.79;49.15
7584;BME280;3833;41.764;26.204;2023-02-16T07:58:06;100379.53;;;18.69;44.81
7584;BME280;3833;41.764;26.204;2023-02-16T08:00:33;100364.63;;;19.71;41.57
7584;BME280;3833;41.764;26.204;2023-02-16T08:03:01;100351.34;;;17.34;44.53
7584;BME280;3833;41.764;26.204;2023-02-16T08:05:28;100366.53;;;18.18;43.99
7584;BME280;3833;41.764;26.204;2023-02-16T08:07:55;100367.81;;;18.25;43.62
7584;BME280;3833;41.764;26.204;2023-02-16T08:10:21;100373.53;;;18.31;42.91
7584;BME280;3833;41.764;26.204;2023-02-16T08:12:49;100364.16;;;16.21;47.59
7584;BME280;3833;41.764;26.204;2023-02-16T08:15:16;100361.75;;;18.71;43.03
7584;BME280;3833;41.764;26.204;2023-02-16T08:17:43;100333.94;;;20.12;40.41
7584;BME280;3833;41.764;26.204;2023-02-16T08:20:12;100338.94;;;19.04;40.93
7584;BME280;3833;41.764;26.204;2023-02-16T08:22:39;100355.38;;;21.36;37.99
7584;BME280;3833;41.764;26.204;2023-02-16T08:25:06;100355.69;;;18.46;41.45
7584;BME280;3833;41.764;26.204;2023-02-16T08:27:34;100356.56;;;19.27;40.92
7584;BME280;3833;41.764;26.204;2023-02-16T08:30:01;100349.63;;;19.37;40.26
7584;BME280;3833;41.764;26.204;2023-02-16T08:32:27;100324.31;;;17.80;42.00
7584;BME280;3833;41.764;26.204;2023-02-16T08:34:54;100357.97;;;18.27;42.35
7584;BME280;3833;41.764;26.204;2023-02-16T08:37:23;100274.84;;;18.88;40.01
7584;BME280;3833;41.764;26.204;2023-02-16T08:39:50;100350.44;;;20.27;39.17
7584;BME280;3833;41.764;26.204;2023-02-16T08:42:18;100352.28;;;22.32;36.81
7584;BME280;3833;41.764;26.204;2023-02-16T08:44:45;100322.63;;;18.98;38.51
7584;BME280;3833;41.764;26.204;2023-02-16T08:47:12;100333.53;;;19.95;38.87
7584;BME280;3833;41.764;26.204;2023-02-16T08:49:41;100315.00;;;19.84;38.28
7584;BME280;3833;41.764;26.204;2023-02-16T08:52:08;100343.22;;;19.85;37.85
7584;BME280;3833;41.764;26.204;2023-02-16T08:54:38;100346.06;;;18.91;38.83
7584;BME280;3833;41.764;26.204;2023-02-16T08:57:05;100316.72;;;19.18;38.19
7584;BME280;3833;41.764;26.204;2023-02-16T08:59:32;100334.00;;;19.67;36.74
7584;BME280;3833;41.764;26.204;2023-02-16T09:01:59;100348.97;;;18.42;37.88
7584;BME280;3833;41.764;26.204;2023-02-16T09:04:27;100322.66;;;19.32;36.59
7584;BME280;3833;41.764;26.204;2023-02-16T09:06:54;100351.94;;;21.04;35.10
7584;BME280;3833;41.764;26.204;2023-02-16T09:09:22;100359.25;;;22.33;34.04
7584;BME280;3833;41.764;26.204;2023-02-16T09:11:52;100342.34;;;19.17;35.87
7584;BME280;3833;41.764;26.204;2023-02-16T09:14:18;100365.56;;;20.80;36.52
7584;BME280;3833;41.764;26.204;2023-02-16T09:16:45;100280.69;;;17.75;36.83
7584;BME280;3833;41.764;26.204;2023-02-16T09:19:14;100367.75;;;19.65;35.75
7584;BME280;3833;41.764;26.204;2023-02-16T09:21:41;100355.78;;;20.05;35.37
7584;BME280;3833;41.764;26.204;2023-02-16T09:24:09;100360.34;;;17.94;37.50
7584;BME280;3833;41.764;26.204;2023-02-16T09:26:37;100361.53;;;21.57;34.93
7584;BME280;3833;41.764;26.204;2023-02-16T09:29:09;100365.53;;;19.48;35.85
7584;BME280;3833;41.764;26.204;2023-02-16T09:31:37;100363.31;;;18.50;37.13
7584;BME280;3833;41.764;26.204;2023-02-16T09:34:06;100349.97;;;18.52;37.45
7584;BME280;3833;41.764;26.204;2023-02-16T09:36:33;100354.31;;;20.23;35.76
7584;BME280;3833;41.764;26.204;2023-02-16T09:39:00;100346.34;;;20.87;34.91
7584;BME280;3833;41.764;26.204;2023-02-16T09:41:40;100325.22;;;20.75;34.56
7584;BME280;3833;41.764;26.204;2023-02-16T09:44:23;100172.16;;;17.42;38.00
7584;BME280;3833;41.764;26.204;2023-02-16T09:46:53;100267.94;;;20.41;34.56
7584;BME280;3833;41.764;26.204;2023-02-16T09:49:23;100310.38;;;19.31;35.88
7584;BME280;3833;41.764;26.204;2023-02-16T09:51:57;100339.53;;;18.38;37.98
7584;BME280;3833;41.764;26.204;2023-02-16T09:54:34;100335.34;;;18.59;37.95
7584;BME280;3833;41.764;26.204;2023-02-16T09:57:12;100324.88;;;20.26;36.45
7584;BME280;3833;41.764;26.204;2023-02-16T09:59:50;100304.38;;;19.51;36.73
7584;BME280;3833;41.764;26.204;2023-02-16T10:02:41;100316.69;;;20.18;36.54
7584;BME280;3833;41.764;26.204;2023-02-16T10:05:17;100241.63;;;17.91;37.07
7584;BME280;3833;41.764;26.204;2023-02-16T10:08:00;100317.88;;;19.59;37.17
7584;BME280;3833;41.764;26.204;2023-02-16T10:10:33;100309.00;;;20.04;37.03
7584;BME280;3833;41.764;26.204;2023-02-16T10:13:07;100317.31;;;17.17;39.78
7584;BME280;3833;41.764;26.204;2023-02-16T10:15:41;100310.13;;;17.94;38.99
7584;BME280;3833;41.764;26.204;2023-02-16T10:18:17;100314.34;;;17.84;38.96
7584;BME280;3833;41.764;26.204;2023-02-16T10:20:48;100313.03;;;18.74;39.15
7584;BME280;3833;41.764;26.204;2023-02-16T10:23:28;100300.88;;;18.48;38.59
7584;BME280;3833;41.764;26.204;2023-02-16T10:26:03;100300.19;;;17.85;39.30
7584;BME280;3833;41.764;26.204;2023-02-16T10:28:38;100303.50;;;17.76;40.48
7584;BME280;3833;41.764;26.204;2023-02-16T10:31:13;100299.25;;;14.50;44.87
7584;BME280;3833;41.764;26.204;2023-02-16T10:33:43;100296.03;;;13.83;46.55
7584;BME280;3833;41.764;26.204;2023-02-16T10:36:15;100295.78;;;12.90;49.15
7584;BME280;3833;41.764;26.204;2023-02-16T10:38:53;100287.81;;;12.40;50.07
7584;BME280;3833;41.764;26.204;2023-02-16T10:41:30;100288.78;;;12.89;49.62
7584;BME280;3833;41.764;26.204;2023-02-16T10:44:02;100282.59;;;12.56;50.10
7584;BME280;3833;41.764;26.204;2023-02-16T10:46:39;100269.41;;;12.93;51.78
7584;BME280;3833;41.764;26.204;2023-02-16T10:49:08;100267.38;;;12.98;51.01
7584;BME280;3833;41.764;26.204;2023-02-16T10:51:38;100272.78;;;13.45;50.25
7584;BME280;3833;41.764;26.204;2023-02-16T10:54:11;100254.25;;;12.31;50.71
7584;BME280;3833;41.764;26.204;2023-02-16T10:56:47;100265.06;;;12.23;52.16
7584;BME280;3833;41.764;26.204;2023-02-16T10:59:18;100263.09;;;11.36;54.06
7584;BME280;3833;41.764;26.204;2023-02-16T11:01:50;100271.78;;;11.93;53.23
7584;BME280;3833;41.764;26.204;2023-02-16T11:04:45;100259.19;;;11.64;54.66
7584;BME280;3833;41.764;26.204;2023-02-16T11:07:14;100266.44;;;11.59;53.82
7584;BME280;3833;41.764;26.204;2023-02-16T11:09:43;100249.78;;;11.79;54.06
7584;BME280;3833;41.764;26.204;2023-02-16T11:12:23;100245.13;;;12.21;52.94
7584;BME280;3833;41.764;26.204;2023-02-16T11:14:56;100244.59;;;12.14;52.87
7584;BME280;3833;41.764;26.204;2023-02-16T11:17:26;100220.22;;;12.31;53.74
7584;BME280;3833;41.764;26.204;2023-02-16T11:19:55;100236.59;;;12.17;53.62
7584;BME280;3833;41.764;26.204;2023-02-16T11:22:27;100224.94;;;12.06;54.10
7584;BME280;3833;41.764;26.204;2023-02-16T11:24:56;100230.22;;;12.56;53.80
7584;BME280;3833;41.764;26.204;2023-02-16T11:27:48;100218.13;;;12.71;53.38
7584;BME280;3833;41.764;26.204;2023-02-16T11:30:20;100206.19;;;12.32;53.66
7584;BME280;3833;41.764;26.204;2023-02-16T11:32:50;100189.63;;;11.79;54.54
7584;BME280;3833;41.764;26.204;2023-02-16T11:35:17;100215.81;;;11.60;55.74
7584;BME280;3833;41.764;26.204;2023-02-16T11:37:45;100213.22;;;11.96;55.72
7584;BME280;3833;41.764;26.204;2023-02-16T11:40:19;100207.00;;;11.98;55.88
7584;BME280;3833;41.764;26.204;2023-02-16T11:42:49;100203.63;;;12.30;55.19
7584;BME280;3833;41.764;26.204;2023-02-16T11:45:26;100196.38;;;12.69;55.06
7584;BME280;3833;41.764;26.204;2023-02-16T11:47:58;100192.00;;;12.36;54.29
7584;BME280;3833;41.764;26.204;2023-02-16T11:50:27;100196.59;;;12.81;53.62
7584;BME280;3833;41.764;26.204;2023-02-16T11:52:56;100196.75;;;12.95;53.38
7584;BME280;3833;41.764;26.204;2023-02-16T11:55:26;100167.94;;;12.78;54.61
7584;BME280;3833;41.764;26.204;2023-02-16T11:58:12;100195.25;;;13.39;52.54
7584;BME280;3833;41.764;26.204;2023-02-16T12:00:42;100182.25;;;13.05;53.65
7584;BME280;3833;41.764;26.204;2023-02-16T12:03:28;100182.88;;;12.76;54.45
7584;BME280;3833;41.764;26.204;2023-02-16T12:06:11;100186.88;;;13.00;53.31
7584;BME280;3833;41.764;26.204;2023-02-16T12:08:57;100172.41;;;12.76;53.47
7584;BME280;3833;41.764;26.204;2023-02-16T12:11:36;100167.25;;;12.75;53.54
7584;BME280;3833;41.764;26.204;2023-02-16T12:14:20;100145.47;;;12.57;53.81
7584;BME280;3833;41.764;26.204;2023-02-16T12:16:53;100160.53;;;13.03;54.39
7584;BME280;3833;41.764;26.204;2023-02-16T12:19:32;100157.06;;;13.18;52.87
7584;BME280;3833;41.764;26.204;2023-02-16T12:22:13;100148.88;;;13.24;53.62
7584;BME280;3833;41.764;26.204;2023-02-16T12:24:46;100153.56;;;13.02;53.26
7584;BME280;3833;41.764;26.204;2023-02-16T12:27:21;100147.56;;;13.00;53.84
7584;BME280;3833;41.764;26.204;2023-02-16T12:29:57;100142.19;;;12.86;54.09
7584;BME280;3833;41.764;26.204;2023-02-16T12:35:32;100140.56;;;12.51;54.71
7584;BME280;3833;41.764;26.204;2023-02-16T12:38:15;100114.19;;;12.54;55.94
7584;BME280;3833;41.764;26.204;2023-02-16T12:40:54;100140.38;;;12.54;54.95
7584;BME280;3833;41.764;26.204;2023-02-16T12:43:36;100138.25;;;12.45;55.51
7584;BME280;3833;41.764;26.204;2023-02-16T12:46:11;100138.91;;;12.83;55.93
7584;BME280;3833;41.764;26.204;2023-02-16T12:48:42;100126.31;;;12.89;55.36
7584;BME280;3833;41.764;26.204;2023-02-16T12:51:17;100129.41;;;12.80;54.97
7584;BME280;3833;41.764;26.204;2023-02-16T12:53:49;100127.88;;;12.76;54.84
7584;BME280;3833;41.764;26.204;2023-02-16T12:56:20;100034.31;;;12.31;55.02
7584;BME280;3833;41.764;26.204;2023-02-16T12:58:50;100100.09;;;12.57;55.32
7584;BME280;3833;41.764;26.204;2023-02-16T13:01:23;100080.41;;;12.50;55.71
7584;BME280;3833;41.764;26.204;2023-02-16T13:03:53;100120.56;;;12.66;55.36
7584;BME280;3833;41.764;26.204;2023-02-16T13:06:27;100118.44;;;12.57;55.87
7584;BME280;3833;41.764;26.204;2023-02-16T13:09:02;100110.78;;;12.69;55.69
7584;BME280;3833;41.764;26.204;2023-02-16T13:11:35;100090.25;;;12.45;55.87
7584;BME280;3833;41.764;26.204;2023-02-16T13:14:10;100105.91;;;12.46;55.76
7584;BME280;3833;41.764;26.204;2023-02-16T13:16:45;100057.53;;;12.37;56.19
7584;BME280;3833;41.764;26.204;2023-02-16T13:19:13;100101.88;;;12.56;56.06
7584;BME280;3833;41.764;26.204;2023-02-16T13:24:48;100094.44;;;12.32;56.48